createdAt,value
2019-05-18T00:00:26.924Z,13.50
2019-05-18T00:02:54.908Z,13.20
2019-05-18T00:05:23.000Z,13.20
2019-05-18T00:07:51.007Z,13.10
2019-05-18T00:10:19.542Z,13.00
2019-05-18T00:12:47.499Z,13.00
2019-05-18T00:15:15.576Z,13.00
2019-05-18T00:17:43.404Z,13.20
2019-05-18T00:20:11.742Z,13.10
2019-05-18T00:22:39.619Z,13.10
2019-05-18T00:25:09.502Z,13.10
2019-05-18T00:27:37.486Z,13.10
2019-05-18T00:30:06.084Z,13.00
2019-05-18T00:32:33.997Z,13.00
2019-05-18T00:35:03.898Z,13.00
2019-05-18T00:37:31.910Z,13.00
2019-05-18T00:40:00.528Z,12.90
2019-05-18T00:42:28.375Z,12.90
2019-05-18T00:44:57.418Z,13.00
2019-05-18T00:47:40.054Z,13.00
2019-05-18T00:49:54.940Z,13.00
2019-05-18T00:52:23.025Z,12.90
2019-05-18T00:54:51.059Z,12.80
2019-05-18T00:57:19.182Z,12.70
2019-05-18T00:59:47.434Z,12.70
2019-05-18T01:02:15.378Z,12.70
2019-05-18T01:04:43.176Z,12.70
2019-05-18T01:07:11.061Z,12.70
2019-05-18T01:09:39.615Z,12.80
2019-05-18T01:12:07.539Z,12.70
2019-05-18T01:14:35.332Z,12.70
2019-05-18T01:17:03.590Z,12.70
2019-05-18T01:19:31.594Z,12.60
2019-05-18T01:21:59.665Z,12.70
2019-05-18T01:24:27.744Z,12.60
2019-05-18T01:26:55.732Z,12.60
2019-05-18T01:29:24.915Z,12.50
2019-05-18T01:31:53.024Z,12.40
2019-05-18T01:34:21.157Z,12.40
2019-05-18T01:36:49.147Z,12.40
2019-05-18T01:39:17.021Z,12.40
2019-05-18T01:41:44.980Z,12.40
2019-05-18T01:44:13.280Z,12.50
2019-05-18T01:46:43.652Z,12.50
2019-05-18T01:49:15.721Z,12.50
2019-05-18T01:51:44.051Z,12.60
2019-05-18T01:54:11.941Z,12.60
2019-05-18T01:56:39.984Z,12.50
2019-05-18T01:59:07.913Z,12.40
2019-05-18T02:01:35.893Z,12.30
2019-05-18T02:04:04.414Z,12.40
2019-05-18T02:06:32.197Z,12.60
2019-05-18T02:09:00.185Z,12.50
2019-05-18T02:11:28.154Z,12.60
2019-05-18T02:13:56.112Z,12.60
2019-05-18T02:16:25.661Z,12.60
2019-05-18T02:18:55.400Z,12.60
2019-05-18T02:21:23.287Z,12.70
2019-05-18T02:23:51.207Z,12.60
2019-05-18T02:26:18.998Z,12.40
2019-05-18T02:28:51.555Z,12.60
2019-05-18T02:31:22.241Z,12.60
2019-05-18T02:33:50.382Z,12.60
2019-05-18T02:36:18.734Z,12.60
2019-05-18T02:38:47.105Z,12.60
2019-05-18T02:41:16.448Z,12.60
2019-05-18T02:43:44.800Z,12.60
2019-05-18T02:46:13.218Z,12.60
2019-05-18T02:48:49.727Z,12.60
2019-05-18T02:51:12.052Z,12.70
2019-05-18T02:53:49.978Z,12.70
2019-05-18T02:56:19.812Z,12.80
2019-05-18T02:58:47.629Z,12.90
2019-05-18T03:01:17.264Z,13.10
2019-05-18T03:03:45.327Z,13.10
2019-05-18T03:06:13.999Z,13.20
2019-05-18T03:08:51.628Z,13.30
2019-05-18T03:11:19.702Z,13.30
2019-05-18T03:13:47.733Z,13.40
2019-05-18T03:16:15.698Z,13.50
2019-05-18T03:18:43.712Z,13.50
2019-05-18T03:21:11.949Z,13.70
2019-05-18T03:23:39.706Z,13.60
2019-05-18T03:26:07.698Z,13.60
2019-05-18T03:28:36.037Z,13.60
2019-05-18T03:31:03.983Z,13.70
2019-05-18T03:33:32.241Z,13.70
2019-05-18T03:36:01.530Z,13.80
2019-05-18T03:38:29.985Z,13.90
2019-05-18T03:40:57.989Z,13.90
2019-05-18T03:43:26.023Z,13.90
2019-05-18T03:45:54.543Z,14.00
2019-05-18T03:48:22.518Z,14.00
2019-05-18T03:50:50.380Z,14.20
2019-05-18T03:53:18.603Z,14.20
2019-05-18T03:55:46.553Z,14.30
2019-05-18T03:58:14.843Z,14.40
2019-05-18T04:00:43.411Z,14.40
2019-05-18T04:03:11.511Z,14.60
2019-05-18T04:05:39.797Z,14.60
2019-05-18T04:08:07.722Z,14.60
2019-05-18T04:10:35.653Z,14.90
2019-05-18T04:13:03.496Z,14.80
2019-05-18T04:15:31.289Z,14.80
2019-05-18T04:17:59.137Z,14.90
2019-05-18T04:20:28.305Z,14.80
2019-05-18T04:22:56.217Z,14.80
2019-05-18T04:25:24.046Z,14.80
2019-05-18T04:27:51.949Z,14.80
2019-05-18T04:30:20.067Z,14.80
2019-05-18T04:32:50.275Z,14.90
2019-05-18T04:35:20.889Z,15.00
2019-05-18T04:37:48.959Z,15.00
2019-05-18T04:40:37.853Z,15.10
2019-05-18T04:43:12.347Z,15.10
2019-05-18T04:45:44.151Z,14.90
2019-05-18T04:48:27.030Z,15.10
2019-05-18T04:50:56.472Z,15.20
2019-05-18T04:53:26.401Z,15.20
2019-05-18T04:55:54.087Z,15.20
2019-05-18T04:58:22.048Z,15.30
2019-05-18T05:00:49.812Z,15.30
2019-05-18T05:03:17.562Z,15.10
2019-05-18T05:05:55.836Z,14.90
2019-05-18T05:08:24.416Z,14.70
2019-05-18T05:10:52.070Z,14.60
2019-05-18T05:13:20.382Z,14.50
2019-05-18T05:15:54.105Z,14.50
2019-05-18T05:18:21.700Z,14.50
2019-05-18T05:20:49.310Z,14.40
2019-05-18T05:23:17.184Z,14.50
2019-05-18T05:25:44.984Z,14.50
2019-05-18T05:28:12.714Z,14.60
2019-05-18T05:30:40.810Z,14.60
2019-05-18T05:33:12.282Z,14.60
2019-05-18T05:35:42.778Z,14.70
2019-05-18T05:38:10.750Z,14.80
2019-05-18T05:40:38.875Z,14.80
2019-05-18T05:43:06.661Z,14.70
2019-05-18T05:45:34.601Z,14.80
2019-05-18T05:48:03.325Z,14.80
2019-05-18T05:50:36.329Z,14.80
2019-05-18T05:53:03.809Z,14.80
2019-05-18T05:55:31.711Z,14.80
2019-05-18T05:57:59.478Z,14.80
2019-05-18T06:00:29.885Z,14.70
2019-05-18T06:02:59.317Z,14.70
2019-05-18T06:05:37.267Z,14.70
2019-05-18T06:07:59.705Z,14.70
2019-05-18T06:10:27.498Z,14.70
2019-05-18T06:12:55.266Z,14.70
2019-05-18T06:15:23.098Z,14.70
2019-05-18T06:17:51.186Z,14.50
2019-05-18T06:20:18.917Z,14.80
2019-05-18T06:22:46.627Z,14.80
2019-05-18T06:25:15.166Z,14.80
2019-05-18T06:27:42.900Z,14.80
2019-05-18T06:30:10.802Z,14.90
2019-05-18T06:32:38.786Z,14.90
2019-05-18T06:35:07.117Z,14.90
2019-05-18T06:37:35.002Z,14.90
2019-05-18T06:40:02.977Z,14.90
2019-05-18T06:42:32.693Z,15.00
2019-05-18T06:45:09.307Z,15.00
2019-05-18T06:47:36.955Z,14.90
2019-05-18T06:50:04.588Z,14.90
2019-05-18T06:52:32.537Z,14.90
2019-05-18T06:55:00.801Z,14.90
2019-05-18T06:57:29.748Z,14.90
2019-05-18T06:59:58.569Z,15.00
2019-05-18T07:02:26.295Z,15.10
2019-05-18T07:04:53.935Z,15.20
2019-05-18T07:07:21.672Z,15.30
2019-05-18T07:09:49.506Z,15.40
2019-05-18T07:12:17.152Z,15.40
2019-05-18T07:14:44.841Z,15.40
2019-05-18T07:17:12.869Z,15.50
2019-05-18T07:19:40.580Z,15.50
2019-05-18T07:22:08.273Z,15.60
2019-05-18T07:24:35.946Z,15.60
2019-05-18T07:27:04.023Z,15.70
2019-05-18T07:29:31.753Z,15.60
2019-05-18T07:31:59.845Z,15.50
2019-05-18T07:34:27.663Z,15.50
2019-05-18T07:36:55.911Z,15.50
2019-05-18T07:39:23.849Z,15.50
2019-05-18T07:41:51.512Z,15.40
2019-05-18T07:44:19.285Z,15.40
2019-05-18T07:46:47.463Z,15.40
2019-05-18T07:49:15.186Z,15.40
2019-05-18T07:51:42.849Z,15.40
2019-05-18T07:54:10.565Z,15.30
2019-05-18T07:56:39.711Z,15.30
2019-05-18T07:59:08.593Z,15.30
2019-05-18T08:01:36.642Z,15.30
2019-05-18T08:04:07.734Z,15.40
2019-05-18T08:06:35.464Z,15.30
2019-05-18T08:09:04.768Z,15.30
2019-05-18T08:11:32.384Z,15.20
2019-05-18T08:14:00.101Z,15.10
2019-05-18T08:16:27.692Z,15.10
2019-05-18T08:18:58.029Z,15.10
2019-05-18T08:21:24.794Z,15.10
2019-05-18T08:23:52.475Z,15.20
2019-05-18T08:26:20.107Z,15.30
2019-05-18T08:28:47.674Z,15.30
2019-05-18T08:31:15.377Z,15.40
2019-05-18T08:33:42.977Z,15.50
2019-05-18T08:36:10.568Z,15.50
2019-05-18T08:38:38.059Z,15.40
2019-05-18T08:41:05.605Z,15.40
2019-05-18T08:43:33.252Z,15.50
2019-05-18T08:46:00.836Z,15.60
2019-05-18T08:48:28.505Z,15.60
2019-05-18T08:50:56.166Z,15.80
2019-05-18T08:53:23.801Z,16.00
2019-05-18T08:55:51.790Z,16.00
2019-05-18T08:58:19.636Z,16.10
2019-05-18T09:00:47.317Z,16.20
2019-05-18T09:03:15.260Z,16.30
2019-05-18T09:05:42.917Z,16.40
2019-05-18T09:08:10.513Z,16.40
2019-05-18T09:10:38.008Z,16.50
2019-05-18T09:13:05.528Z,16.70
2019-05-18T09:15:33.140Z,16.80
2019-05-18T09:18:04.995Z,17.10
2019-05-18T09:20:32.866Z,17.20
2019-05-18T09:23:00.488Z,17.40
2019-05-18T09:25:28.062Z,17.40
2019-05-18T09:27:55.707Z,17.20
2019-05-18T09:30:23.245Z,17.10
2019-05-18T09:32:51.096Z,17.10
2019-05-18T09:35:19.215Z,17.20
2019-05-18T09:37:46.875Z,17.20
2019-05-18T09:40:15.114Z,17.50
2019-05-18T09:42:42.943Z,17.70
2019-05-18T09:45:11.722Z,17.90
2019-05-18T09:47:39.352Z,18.00
2019-05-18T09:50:07.945Z,18.00
2019-05-18T09:52:44.835Z,18.10
2019-05-18T09:55:06.257Z,18.20
2019-05-18T09:57:34.812Z,18.20
2019-05-18T10:00:14.018Z,18.40
2019-05-18T10:02:44.149Z,18.50
2019-05-18T10:05:14.385Z,18.60
2019-05-18T10:07:42.776Z,18.60
2019-05-18T10:10:10.966Z,18.50
2019-05-18T10:12:38.605Z,18.50
2019-05-18T10:15:06.658Z,18.60
2019-05-18T10:17:34.287Z,18.70
2019-05-18T10:20:02.283Z,18.90
2019-05-18T10:22:30.034Z,19.20
2019-05-18T10:24:57.977Z,19.00
2019-05-18T10:27:25.808Z,19.00
2019-05-18T10:29:53.660Z,19.10
2019-05-18T10:32:21.571Z,19.30
2019-05-18T10:34:49.330Z,19.40
2019-05-18T10:37:17.469Z,19.50
2019-05-18T10:39:45.588Z,19.50
2019-05-18T10:42:13.451Z,19.30
2019-05-18T10:44:41.770Z,19.20
2019-05-18T10:47:09.528Z,19.40
2019-05-18T10:49:37.186Z,19.60
2019-05-18T10:52:05.061Z,19.80
2019-05-18T10:54:32.765Z,19.70
2019-05-18T10:57:04.206Z,19.60
2019-05-18T10:59:31.933Z,19.90
2019-05-18T11:01:59.567Z,19.70
2019-05-18T11:04:27.244Z,19.80
2019-05-18T11:07:04.773Z,19.80
2019-05-18T11:09:32.553Z,19.80
2019-05-18T11:12:00.276Z,19.90
2019-05-18T11:14:28.267Z,20.00
2019-05-18T11:16:56.203Z,20.30
2019-05-18T11:19:23.998Z,20.30
2019-05-18T11:21:51.889Z,20.50
2019-05-18T11:24:19.868Z,20.80
2019-05-18T11:26:53.663Z,20.70
2019-05-18T11:29:23.245Z,20.60
2019-05-18T11:31:51.187Z,20.40
2019-05-18T11:34:19.294Z,20.50
2019-05-18T11:36:46.850Z,20.40
2019-05-18T11:39:23.601Z,20.50
2019-05-18T11:41:47.829Z,20.50
2019-05-18T11:44:15.727Z,20.30
2019-05-18T11:46:44.806Z,20.50
2019-05-18T11:49:15.186Z,20.80
2019-05-18T11:51:42.830Z,20.70
2019-05-18T11:54:10.703Z,20.60
2019-05-18T11:56:38.677Z,20.50
2019-05-18T11:59:06.298Z,20.60
2019-05-18T12:01:34.342Z,20.60
2019-05-18T12:04:02.248Z,20.90
2019-05-18T12:06:29.996Z,20.60
2019-05-18T12:08:58.753Z,20.50
2019-05-18T12:11:26.482Z,20.50
2019-05-18T12:13:54.131Z,20.80
2019-05-18T12:16:21.910Z,21.20
2019-05-18T12:18:49.988Z,21.70
2019-05-18T12:21:17.776Z,22.00
2019-05-18T12:23:45.574Z,22.00
2019-05-18T12:26:13.245Z,22.10
2019-05-18T12:28:41.011Z,22.10
2019-05-18T12:31:08.714Z,22.50
2019-05-18T12:33:36.713Z,22.80
2019-05-18T12:36:06.138Z,22.70
2019-05-18T12:38:33.870Z,22.80
2019-05-18T12:41:03.011Z,22.70
2019-05-18T12:43:30.745Z,22.80
2019-05-18T12:45:58.513Z,23.20
2019-05-18T12:48:26.320Z,23.60
2019-05-18T12:50:54.004Z,24.00
2019-05-18T12:53:21.802Z,24.30
2019-05-18T12:55:49.545Z,24.40
2019-05-18T12:58:17.298Z,24.20
2019-05-18T13:00:44.944Z,24.30
2019-05-18T13:03:12.752Z,24.30
2019-05-18T13:05:40.757Z,24.20
2019-05-18T13:08:08.509Z,24.50
2019-05-18T13:10:36.366Z,24.60
2019-05-18T13:13:04.074Z,24.60
2019-05-18T13:15:31.870Z,24.90
2019-05-18T13:17:59.506Z,25.20
2019-05-18T13:20:27.078Z,25.20
2019-05-18T13:22:54.858Z,24.50
2019-05-18T13:25:22.869Z,24.30
2019-05-18T13:27:50.785Z,24.10
2019-05-18T13:30:19.845Z,23.80
2019-05-18T13:32:47.911Z,23.60
2019-05-18T13:35:17.858Z,23.20
2019-05-18T13:37:45.786Z,23.00
2019-05-18T13:40:14.141Z,23.10
2019-05-18T13:42:41.789Z,23.20
2019-05-18T13:45:09.860Z,23.40
2019-05-18T13:47:37.704Z,23.70
2019-05-18T13:50:05.987Z,23.40
2019-05-18T13:52:33.893Z,23.20
2019-05-18T13:55:04.468Z,23.40
2019-05-18T13:57:31.161Z,23.70
2019-05-18T13:59:58.867Z,24.30
2019-05-18T14:02:26.719Z,25.10
2019-05-18T14:04:54.647Z,26.00
2019-05-18T14:07:23.454Z,26.70
2019-05-18T14:09:51.218Z,27.40
2019-05-18T14:12:18.851Z,27.80
2019-05-18T14:14:46.407Z,27.10
2019-05-18T14:17:14.101Z,27.70
2019-05-18T14:19:41.772Z,28.50
2019-05-18T14:22:09.957Z,29.10
2019-05-18T14:24:37.572Z,29.10
2019-05-18T14:27:05.223Z,28.40
2019-05-18T14:29:32.908Z,28.10
2019-05-18T14:32:02.003Z,28.90
2019-05-18T14:34:29.746Z,29.60
2019-05-18T14:36:58.062Z,30.00
2019-05-18T14:39:25.794Z,29.70
2019-05-18T14:41:53.660Z,29.70
2019-05-18T14:44:21.952Z,29.60
2019-05-18T14:46:52.409Z,29.00
2019-05-18T14:49:20.288Z,28.00
2019-05-18T14:51:49.321Z,26.80
2019-05-18T14:54:17.268Z,26.30
2019-05-18T14:56:45.471Z,25.70
2019-05-18T14:59:13.421Z,25.60
2019-05-18T15:01:41.282Z,26.10
2019-05-18T15:04:09.129Z,26.20
2019-05-18T15:06:37.022Z,26.80
2019-05-18T15:09:05.965Z,28.00
2019-05-18T15:11:34.238Z,28.80
2019-05-18T15:14:02.496Z,28.60
2019-05-18T15:16:30.371Z,28.10
2019-05-18T15:19:00.271Z,27.70
2019-05-18T15:21:28.138Z,27.50
2019-05-18T15:23:56.044Z,27.90
2019-05-18T15:26:23.996Z,28.90
2019-05-18T15:28:51.966Z,29.60
2019-05-18T15:31:19.788Z,29.50
2019-05-18T15:33:53.814Z,28.50
2019-05-18T15:36:21.865Z,27.10
2019-05-18T15:38:50.526Z,26.30
2019-05-18T15:41:18.421Z,25.80
2019-05-18T15:43:46.346Z,25.20
2019-05-18T15:46:14.632Z,24.90
2019-05-18T15:48:52.066Z,24.50
2019-05-18T15:51:24.518Z,24.10
2019-05-18T15:54:01.099Z,23.90
2019-05-18T15:56:30.997Z,23.60
2019-05-18T15:58:58.931Z,23.00
2019-05-18T16:01:29.224Z,22.60
2019-05-18T16:03:57.005Z,22.20
2019-05-18T16:06:27.966Z,22.00
2019-05-18T16:09:01.738Z,21.80
2019-05-18T16:11:29.796Z,21.90
2019-05-18T16:13:57.839Z,21.80
2019-05-18T16:16:25.765Z,21.90
2019-05-18T16:18:56.842Z,22.10
2019-05-18T16:21:29.485Z,22.00
2019-05-18T16:23:59.949Z,22.10
2019-05-18T16:26:32.144Z,22.00
2019-05-18T16:29:00.873Z,22.20
2019-05-18T16:31:34.726Z,21.80
2019-05-18T16:34:03.449Z,21.70
2019-05-18T16:36:33.606Z,21.70
2019-05-18T16:39:06.316Z,21.40
2019-05-18T16:41:35.001Z,21.20
2019-05-18T16:44:02.742Z,21.00
2019-05-18T16:46:30.917Z,20.90
2019-05-18T16:48:58.678Z,20.70
2019-05-18T16:51:30.597Z,20.70
2019-05-18T16:54:18.742Z,20.60
2019-05-18T16:56:47.080Z,20.60
2019-05-18T16:59:17.915Z,20.50
2019-05-18T17:01:46.993Z,20.40
2019-05-18T17:04:15.937Z,20.30
2019-05-18T17:06:52.907Z,20.30
2019-05-18T17:09:21.487Z,20.10
2019-05-18T17:11:52.862Z,20.20
2019-05-18T17:16:50.874Z,20.20
2019-05-18T17:19:18.890Z,20.10
2019-05-18T17:22:03.507Z,20.10
2019-05-18T17:24:32.941Z,20.10
2019-05-18T17:27:00.977Z,20.00
2019-05-18T17:29:28.987Z,19.90
2019-05-18T17:31:57.317Z,19.80
2019-05-18T17:34:25.320Z,19.80
2019-05-18T17:36:57.474Z,19.70
2019-05-18T17:39:27.692Z,19.70
2019-05-18T17:41:55.810Z,19.60
2019-05-18T17:44:23.879Z,19.60
2019-05-18T17:46:54.208Z,19.50
2019-05-18T17:49:26.890Z,19.50
2019-05-18T17:52:11.216Z,19.50
2019-05-18T17:54:39.796Z,19.40
2019-05-18T17:57:09.270Z,19.40
2019-05-18T17:59:43.925Z,19.40
2019-05-18T18:02:12.556Z,19.30
2019-05-18T18:04:40.405Z,19.30
2019-05-18T18:07:15.026Z,19.20
2019-05-18T18:09:43.282Z,19.20
2019-05-18T18:12:15.862Z,19.20
2019-05-18T18:14:44.341Z,19.10
2019-05-18T18:17:13.746Z,19.00
2019-05-18T18:19:44.737Z,18.90
2019-05-18T18:22:14.923Z,18.80
2019-05-18T18:24:49.207Z,18.70
2019-05-18T18:27:25.298Z,18.70
2019-05-18T18:29:51.997Z,18.70
2019-05-18T18:32:27.710Z,18.70
2019-05-18T18:34:55.853Z,18.60
2019-05-18T18:37:31.081Z,18.60
2019-05-18T18:40:03.857Z,18.40
2019-05-18T18:42:38.153Z,18.50
2019-05-18T18:45:11.721Z,18.50
2019-05-18T18:47:49.082Z,18.50
2019-05-18T18:50:17.725Z,18.50
2019-05-18T18:52:52.442Z,18.40
2019-05-18T18:55:28.700Z,18.40
2019-05-18T18:58:05.447Z,18.40
2019-05-18T19:00:42.894Z,18.40
2019-05-18T19:03:13.286Z,18.30
2019-05-18T19:05:45.845Z,18.20
2019-05-18T19:08:20.361Z,18.20
2019-05-18T19:10:50.423Z,18.10
2019-05-18T19:13:20.449Z,18.10
2019-05-18T19:15:55.747Z,17.80
2019-05-18T19:18:27.734Z,18.00
2019-05-18T19:20:55.973Z,18.00
2019-05-18T19:23:31.569Z,17.90
2019-05-18T19:25:57.103Z,18.00
2019-05-18T19:28:25.346Z,18.00
2019-05-18T19:30:56.600Z,18.10
2019-05-18T19:33:24.749Z,18.00
2019-05-18T19:35:52.932Z,17.90
2019-05-18T19:38:20.963Z,17.80
2019-05-18T19:40:49.616Z,17.80
2019-05-18T19:43:17.804Z,17.80
2019-05-18T19:45:46.144Z,17.80
2019-05-18T19:48:36.880Z,17.70
2019-05-18T19:51:08.646Z,17.60
2019-05-18T19:53:41.806Z,17.50
2019-05-18T19:56:13.419Z,17.40
2019-05-18T19:58:44.833Z,17.40
2019-05-18T20:01:13.146Z,17.20
2019-05-18T20:03:41.432Z,17.10
2019-05-18T20:06:11.297Z,17.00
2019-05-18T20:08:40.153Z,17.00
2019-05-18T20:11:08.737Z,16.90
2019-05-18T20:13:38.879Z,16.80
2019-05-18T20:16:06.992Z,16.60
2019-05-18T20:18:37.400Z,16.70
2019-05-18T20:21:06.386Z,16.50
2019-05-18T20:23:34.623Z,16.60
2019-05-18T20:26:03.333Z,16.60
2019-05-18T20:28:31.872Z,16.70
2019-05-18T20:31:00.109Z,16.70
2019-05-18T20:33:28.793Z,16.70
2019-05-18T20:35:57.769Z,16.80
2019-05-18T20:38:25.734Z,16.70
2019-05-18T20:40:53.598Z,16.80
2019-05-18T20:43:21.526Z,17.00
2019-05-18T20:45:49.337Z,17.10
2019-05-18T20:48:22.229Z,17.10
2019-05-18T20:50:50.385Z,17.00
2019-05-18T20:53:21.478Z,17.00
2019-05-18T20:55:53.105Z,17.00
2019-05-18T20:58:39.443Z,17.10
2019-05-18T21:01:24.608Z,17.10
2019-05-18T21:03:55.176Z,17.10
2019-05-18T21:06:23.914Z,17.10
2019-05-18T21:08:52.668Z,17.10
2019-05-18T21:11:20.837Z,17.10
2019-05-18T21:14:07.689Z,17.10
2019-05-18T21:16:36.015Z,17.10
2019-05-18T21:19:11.116Z,17.10
2019-05-18T21:21:38.916Z,17.10
2019-05-18T21:24:07.436Z,17.00
2019-05-18T21:26:37.814Z,17.00
2019-05-18T21:29:05.916Z,17.00
2019-05-18T21:31:34.571Z,16.90
2019-05-18T21:34:02.742Z,16.90
2019-05-18T21:36:31.470Z,16.90
2019-05-18T21:38:59.711Z,16.80
2019-05-18T21:41:30.368Z,16.80
2019-05-18T21:44:01.114Z,16.70
2019-05-18T21:46:30.957Z,16.70
2019-05-18T21:48:58.848Z,16.60
2019-05-18T21:51:26.756Z,16.60
2019-05-18T21:53:54.520Z,16.60
2019-05-18T21:56:27.169Z,16.50
2019-05-18T21:59:10.157Z,16.60
2019-05-18T22:01:25.196Z,16.60
2019-05-18T22:04:00.095Z,16.70
2019-05-18T22:07:02.792Z,16.80
2019-05-18T22:09:32.495Z,16.90
2019-05-18T22:14:38.153Z,16.90
2019-05-18T22:17:16.910Z,17.00
2019-05-18T22:20:02.691Z,16.90
2019-05-18T22:22:33.805Z,17.00
2019-05-18T22:25:04.437Z,17.00
2019-05-18T22:32:58.068Z,16.90
2019-05-18T22:35:23.290Z,16.90
2019-05-18T22:37:51.077Z,16.90
2019-05-18T22:40:39.820Z,16.90
2019-05-18T22:43:08.231Z,16.90
2019-05-18T22:45:37.601Z,16.90
2019-05-18T22:48:08.155Z,16.90
2019-05-18T22:50:36.106Z,16.80
2019-05-18T22:53:13.356Z,16.80
2019-05-18T22:55:43.602Z,16.90
2019-05-18T22:58:11.598Z,16.70
2019-05-18T23:00:39.413Z,16.70
2019-05-18T23:03:07.954Z,16.70
2019-05-18T23:05:38.425Z,16.70
2019-05-18T23:11:10.462Z,16.60
2019-05-18T23:13:39.035Z,16.60
2019-05-18T23:16:08.405Z,16.50
2019-05-18T23:18:36.545Z,16.50
2019-05-18T23:21:25.323Z,16.40
2019-05-18T23:23:54.211Z,16.40
2019-05-18T23:26:22.291Z,16.40
2019-05-18T23:28:50.057Z,16.40
2019-05-18T23:31:18.080Z,16.30
2019-05-18T23:33:45.992Z,16.30
2019-05-18T23:36:49.520Z,16.30
2019-05-18T23:39:22.378Z,16.40
2019-05-18T23:41:51.619Z,16.40
2019-05-18T23:44:30.469Z,16.20
2019-05-18T23:47:07.834Z,16.20
2019-05-18T23:49:35.758Z,16.20
2019-05-18T23:52:05.167Z,16.20
2019-05-18T23:54:44.926Z,16.30
2019-05-18T23:57:26.706Z,16.10
